sensor_id;sensor_type;location;lat;lon;timestamp;P1;durP1;ratioP1;P2;durP2;ratioP2
29238;SDS011;16267;48.194;11.546;2023-06-10T00:00:44;2.80;;;1.80;;
29238;SDS011;16267;48.194;11.546;2023-06-10T00:03:10;2.58;;;1.75;;
29238;SDS011;16267;48.194;11.546;2023-06-10T00:05:36;3.00;;;2.22;;
29238;SDS011;16267;48.194;11.546;2023-06-10T00:08:04;2.50;;;1.67;;
29238;SDS011;16267;48.194;11.546;2023-06-10T00:10:36;1.90;;;1.50;;
29238;SDS011;16267;48.194;11.546;2023-06-10T00:13:03;2.33;;;1.70;;
29238;SDS011;16267;48.194;11.546;2023-06-10T00:15:32;3.30;;;1.98;;
29238;SDS011;16267;48.194;11.546;2023-06-10T00:17:58;3.60;;;2.15;;
29238;SDS011;16267;48.194;11.546;2023-06-10T00:20:24;2.05;;;1.50;;
29238;SDS011;16267;48.194;11.546;2023-06-10T00:22:51;2.60;;;1.73;;
29238;SDS011;16267;48.194;11.546;2023-06-10T00:25:17;2.75;;;1.80;;
29238;SDS011;16267;48.194;11.546;2023-06-10T00:27:43;3.33;;;2.05;;
29238;SDS011;16267;48.194;11.546;2023-06-10T00:30:10;2.00;;;1.45;;
29238;SDS011;16267;48.194;11.546;2023-06-10T00:32:36;3.90;;;2.03;;
29238;SDS011;16267;48.194;11.546;2023-06-10T00:35:03;2.67;;;1.90;;
29238;SDS011;16267;48.194;11.546;2023-06-10T00:37:29;3.53;;;2.00;;
29238;SDS011;16267;48.194;11.546;2023-06-10T00:39:57;3.05;;;1.70;;
29238;SDS011;16267;48.194;11.546;2023-06-10T00:42:22;2.78;;;1.80;;
29238;SDS011;16267;48.194;11.546;2023-06-10T00:44:53;1.60;;;1.30;;
29238;SDS011;16267;48.194;11.546;2023-06-10T00:47:19;2.03;;;1.60;;
29238;SDS011;16267;48.194;11.546;2023-06-10T00:49:45;1.58;;;1.42;;
29238;SDS011;16267;48.194;11.546;2023-06-10T00:52:12;1.85;;;1.40;;
29238;SDS011;16267;48.194;11.546;2023-06-10T00:54:41;2.88;;;1.73;;
29238;SDS011;16267;48.194;11.546;2023-06-10T00:57:07;2.55;;;1.80;;
29238;SDS011;16267;48.194;11.546;2023-06-10T00:59:33;2.92;;;2.10;;
29238;SDS011;16267;48.194;11.546;2023-06-10T01:01:59;3.42;;;2.08;;
29238;SDS011;16267;48.194;11.546;2023-06-10T01:04:27;2.70;;;1.67;;
29238;SDS011;16267;48.194;11.546;2023-06-10T01:10:11;2.60;;;1.83;;
29238;SDS011;16267;48.194;11.546;2023-06-10T01:13:03;2.92;;;1.83;;
29238;SDS011;16267;48.194;11.546;2023-06-10T01:15:33;2.95;;;1.65;;
29238;SDS011;16267;48.194;11.546;2023-06-10T01:18:04;3.38;;;2.03;;
29238;SDS011;16267;48.194;11.546;2023-06-10T01:20:34;3.70;;;1.88;;
29238;SDS011;16267;48.194;11.546;2023-06-10T01:23:05;2.50;;;1.70;;
29238;SDS011;16267;48.194;11.546;2023-06-10T01:25:32;2.30;;;1.70;;
29238;SDS011;16267;48.194;11.546;2023-06-10T01:31:09;1.65;;;1.27;;
29238;SDS011;16267;48.194;11.546;2023-06-10T01:34:14;1.67;;;1.33;;
29238;SDS011;16267;48.194;11.546;2023-06-10T01:36:46;2.55;;;1.80;;
29238;SDS011;16267;48.194;11.546;2023-06-10T01:39:14;1.95;;;1.60;;
29238;SDS011;16267;48.194;11.546;2023-06-10T01:41:42;4.20;;;2.35;;
29238;SDS011;16267;48.194;11.546;2023-06-10T01:44:08;2.28;;;1.35;;
29238;SDS011;16267;48.194;11.546;2023-06-10T01:46:35;2.08;;;1.73;;
29238;SDS011;16267;48.194;11.546;2023-06-10T01:49:01;3.47;;;1.98;;
29238;SDS011;16267;48.194;11.546;2023-06-10T01:51:27;2.75;;;1.48;;
29238;SDS011;16267;48.194;11.546;2023-06-10T01:53:53;4.43;;;1.60;;
29238;SDS011;16267;48.194;11.546;2023-06-10T01:56:18;2.20;;;1.65;;
29238;SDS011;16267;48.194;11.546;2023-06-10T01:58:45;2.55;;;1.67;;
29238;SDS011;16267;48.194;11.546;2023-06-10T02:01:12;2.30;;;1.73;;
29238;SDS011;16267;48.194;11.546;2023-06-10T02:03:38;2.08;;;1.70;;
29238;SDS011;16267;48.194;11.546;2023-06-10T02:06:04;2.78;;;1.70;;
29238;SDS011;16267;48.194;11.546;2023-06-10T02:08:30;2.05;;;1.45;;
29238;SDS011;16267;48.194;11.546;2023-06-10T02:10:56;3.40;;;2.13;;
29238;SDS011;16267;48.194;11.546;2023-06-10T02:13:21;2.03;;;1.40;;
29238;SDS011;16267;48.194;11.546;2023-06-10T02:15:47;2.08;;;1.38;;
29238;SDS011;16267;48.194;11.546;2023-06-10T02:20:45;2.07;;;1.60;;
29238;SDS011;16267;48.194;11.546;2023-06-10T02:23:11;1.90;;;1.30;;
29238;SDS011;16267;48.194;11.546;2023-06-10T02:25:37;1.73;;;1.42;;
29238;SDS011;16267;48.194;11.546;2023-06-10T02:28:03;6.18;;;1.95;;
29238;SDS011;16267;48.194;11.546;2023-06-10T02:30:29;1.85;;;1.35;;
29238;SDS011;16267;48.194;11.546;2023-06-10T02:32:55;2.45;;;1.50;;
29238;SDS011;16267;48.194;11.546;2023-06-10T02:35:21;2.00;;;1.38;;
29238;SDS011;16267;48.194;11.546;2023-06-10T02:37:49;3.72;;;1.90;;
29238;SDS011;16267;48.194;11.546;2023-06-10T02:40:15;2.13;;;1.45;;
29238;SDS011;16267;48.194;11.546;2023-06-10T02:42:41;3.40;;;1.73;;
29238;SDS011;16267;48.194;11.546;2023-06-10T02:45:07;2.83;;;1.70;;
29238;SDS011;16267;48.194;11.546;2023-06-10T02:47:33;2.45;;;1.48;;
29238;SDS011;16267;48.194;11.546;2023-06-10T02:49:59;2.50;;;1.45;;
29238;SDS011;16267;48.194;11.546;2023-06-10T02:52:25;4.53;;;1.38;;
29238;SDS011;16267;48.194;11.546;2023-06-10T02:54:51;2.05;;;1.50;;
29238;SDS011;16267;48.194;11.546;2023-06-10T02:57:17;3.63;;;2.03;;
29238;SDS011;16267;48.194;11.546;2023-06-10T02:59:42;2.50;;;1.67;;
29238;SDS011;16267;48.194;11.546;2023-06-10T03:02:08;2.28;;;1.58;;
29238;SDS011;16267;48.194;11.546;2023-06-10T03:04:34;2.08;;;1.45;;
29238;SDS011;16267;48.194;11.546;2023-06-10T03:07:02;2.75;;;1.52;;
29238;SDS011;16267;48.194;11.546;2023-06-10T03:09:32;3.97;;;1.85;;
29238;SDS011;16267;48.194;11.546;2023-06-10T03:11:58;3.70;;;1.98;;
29238;SDS011;16267;48.194;11.546;2023-06-10T03:14:25;2.70;;;1.80;;
29238;SDS011;16267;48.194;11.546;2023-06-10T03:16:50;3.50;;;1.95;;
29238;SDS011;16267;48.194;11.546;2023-06-10T03:19:16;2.92;;;2.03;;
29238;SDS011;16267;48.194;11.546;2023-06-10T03:21:43;4.97;;;2.17;;
29238;SDS011;16267;48.194;11.546;2023-06-10T03:24:10;2.70;;;1.63;;
29238;SDS011;16267;48.194;11.546;2023-06-10T03:26:36;2.53;;;1.73;;
29238;SDS011;16267;48.194;11.546;2023-06-10T03:29:01;2.72;;;2.17;;
29238;SDS011;16267;48.194;11.546;2023-06-10T03:31:27;2.50;;;1.77;;
29238;SDS011;16267;48.194;11.546;2023-06-10T03:33:53;4.15;;;2.15;;
29238;SDS011;16267;48.194;11.546;2023-06-10T03:36:19;3.33;;;1.80;;
29238;SDS011;16267;48.194;11.546;2023-06-10T03:38:44;2.83;;;1.75;;
29238;SDS011;16267;48.194;11.546;2023-06-10T03:41:10;3.30;;;2.05;;
29238;SDS011;16267;48.194;11.546;2023-06-10T03:43:37;2.55;;;1.83;;
29238;SDS011;16267;48.194;11.546;2023-06-10T03:46:03;2.75;;;1.80;;
29238;SDS011;16267;48.194;11.546;2023-06-10T03:48:29;3.13;;;1.98;;
29238;SDS011;16267;48.194;11.546;2023-06-10T03:50:55;3.97;;;2.08;;
29238;SDS011;16267;48.194;11.546;2023-06-10T03:53:21;2.17;;;1.55;;
29238;SDS011;16267;48.194;11.546;2023-06-10T03:55:47;2.22;;;1.52;;
29238;SDS011;16267;48.194;11.546;2023-06-10T03:58:13;2.30;;;1.55;;
29238;SDS011;16267;48.194;11.546;2023-06-10T04:00:39;2.63;;;1.77;;
29238;SDS011;16267;48.194;11.546;2023-06-10T04:03:08;3.25;;;2.20;;
29238;SDS011;16267;48.194;11.546;2023-06-10T04:05:39;2.53;;;1.80;;
29238;SDS011;16267;48.194;11.546;2023-06-10T04:08:06;3.70;;;1.85;;
29238;SDS011;16267;48.194;11.546;2023-06-10T04:10:33;3.08;;;1.90;;
29238;SDS011;16267;48.194;11.546;2023-06-10T04:12:59;4.40;;;2.00;;
29238;SDS011;16267;48.194;11.546;2023-06-10T04:15:25;3.45;;;2.17;;
29238;SDS011;16267;48.194;11.546;2023-06-10T04:17:51;4.40;;;1.98;;
29238;SDS011;16267;48.194;11.546;2023-06-10T04:20:17;3.03;;;2.08;;
29238;SDS011;16267;48.194;11.546;2023-06-10T04:22:43;4.22;;;2.22;;
29238;SDS011;16267;48.194;11.546;2023-06-10T04:25:09;2.83;;;1.80;;
29238;SDS011;16267;48.194;11.546;2023-06-10T04:27:35;4.85;;;2.10;;
29238;SDS011;16267;48.194;11.546;2023-06-10T04:30:02;2.50;;;1.55;;
29238;SDS011;16267;48.194;11.546;2023-06-10T04:32:29;3.80;;;1.92;;
29238;SDS011;16267;48.194;11.546;2023-06-10T04:34:55;2.47;;;1.73;;
29238;SDS011;16267;48.194;11.546;2023-06-10T04:37:32;2.65;;;1.73;;
29238;SDS011;16267;48.194;11.546;2023-06-10T04:39:58;3.28;;;2.08;;
29238;SDS011;16267;48.194;11.546;2023-06-10T04:42:24;4.20;;;2.60;;
29238;SDS011;16267;48.194;11.546;2023-06-10T04:44:50;3.13;;;1.95;;
29238;SDS011;16267;48.194;11.546;2023-06-10T04:47:15;5.15;;;2.15;;
29238;SDS011;16267;48.194;11.546;2023-06-10T04:49:42;3.70;;;1.65;;
29238;SDS011;16267;48.194;11.546;2023-06-10T04:52:07;2.72;;;1.60;;
29238;SDS011;16267;48.194;11.546;2023-06-10T04:54:35;2.90;;;1.58;;
29238;SDS011;16267;48.194;11.546;2023-06-10T04:57:01;3.45;;;1.95;;
29238;SDS011;16267;48.194;11.546;2023-06-10T04:59:27;2.72;;;1.92;;
29238;SDS011;16267;48.194;11.546;2023-06-10T05:01:55;3.30;;;1.90;;
29238;SDS011;16267;48.194;11.546;2023-06-10T05:04:20;2.95;;;1.70;;
29238;SDS011;16267;48.194;11.546;2023-06-10T05:06:46;2.70;;;1.98;;
29238;SDS011;16267;48.194;11.546;2023-06-10T05:09:15;3.05;;;1.58;;
29238;SDS011;16267;48.194;11.546;2023-06-10T05:11:41;2.65;;;1.95;;
29238;SDS011;16267;48.194;11.546;2023-06-10T05:14:07;3.90;;;2.40;;
29238;SDS011;16267;48.194;11.546;2023-06-10T05:16:33;3.40;;;1.75;;
29238;SDS011;16267;48.194;11.546;2023-06-10T05:18:59;2.80;;;1.67;;
29238;SDS011;16267;48.194;11.546;2023-06-10T05:21:24;2.58;;;1.92;;
29238;SDS011;16267;48.194;11.546;2023-06-10T05:23:50;2.75;;;1.90;;
29238;SDS011;16267;48.194;11.546;2023-06-10T05:26:16;3.72;;;2.15;;
29238;SDS011;16267;48.194;11.546;2023-06-10T05:28:42;4.00;;;2.40;;
29238;SDS011;16267;48.194;11.546;2023-06-10T05:31:08;3.60;;;2.15;;
29238;SDS011;16267;48.194;11.546;2023-06-10T05:33:34;4.38;;;2.20;;
29238;SDS011;16267;48.194;11.546;2023-06-10T05:36:00;2.17;;;1.50;;
29238;SDS011;16267;48.194;11.546;2023-06-10T05:38:25;2.42;;;1.63;;
29238;SDS011;16267;48.194;11.546;2023-06-10T05:40:51;2.72;;;1.75;;
29238;SDS011;16267;48.194;11.546;2023-06-10T05:43:17;3.55;;;2.15;;
29238;SDS011;16267;48.194;11.546;2023-06-10T05:45:42;3.10;;;2.05;;
29238;SDS011;16267;48.194;11.546;2023-06-10T05:48:08;2.63;;;1.60;;
29238;SDS011;16267;48.194;11.546;2023-06-10T05:50:34;3.65;;;2.25;;
29238;SDS011;16267;48.194;11.546;2023-06-10T05:53:03;4.07;;;2.20;;
29238;SDS011;16267;48.194;11.546;2023-06-10T05:55:32;3.65;;;2.20;;
29238;SDS011;16267;48.194;11.546;2023-06-10T05:57:58;3.70;;;2.05;;
29238;SDS011;16267;48.194;11.546;2023-06-10T06:00:25;3.35;;;2.05;;
29238;SDS011;16267;48.194;11.546;2023-06-10T06:02:51;4.53;;;2.33;;
29238;SDS011;16267;48.194;11.546;2023-06-10T06:05:19;3.45;;;2.15;;
29238;SDS011;16267;48.194;11.546;2023-06-10T06:07:45;3.08;;;1.95;;
29238;SDS011;16267;48.194;11.546;2023-06-10T06:10:10;4.63;;;2.10;;
29238;SDS011;16267;48.194;11.546;2023-06-10T06:12:36;2.88;;;1.77;;
29238;SDS011;16267;48.194;11.546;2023-06-10T06:15:03;3.15;;;1.85;;
29238;SDS011;16267;48.194;11.546;2023-06-10T06:17:29;2.40;;;1.63;;
29238;SDS011;16267;48.194;11.546;2023-06-10T06:19:55;3.03;;;1.80;;
29238;SDS011;16267;48.194;11.546;2023-06-10T06:22:20;3.55;;;2.05;;
29238;SDS011;16267;48.194;11.546;2023-06-10T06:24:47;3.60;;;1.88;;
29238;SDS011;16267;48.194;11.546;2023-06-10T06:27:14;3.75;;;1.70;;
29238;SDS011;16267;48.194;11.546;2023-06-10T06:29:40;4.38;;;2.17;;
29238;SDS011;16267;48.194;11.546;2023-06-10T06:32:06;2.25;;;1.85;;
29238;SDS011;16267;48.194;11.546;2023-06-10T06:34:32;4.43;;;1.80;;
29238;SDS011;16267;48.194;11.546;2023-06-10T06:36:58;2.95;;;1.80;;
29238;SDS011;16267;48.194;11.546;2023-06-10T06:39:24;3.70;;;1.92;;
29238;SDS011;16267;48.194;11.546;2023-06-10T06:41:50;1.95;;;1.42;;
29238;SDS011;16267;48.194;11.546;2023-06-10T06:44:16;4.15;;;1.73;;
29238;SDS011;16267;48.194;11.546;2023-06-10T06:46:41;2.38;;;1.60;;
29238;SDS011;16267;48.194;11.546;2023-06-10T06:49:07;2.13;;;1.70;;
29238;SDS011;16267;48.194;11.546;2023-06-10T06:51:33;2.58;;;1.55;;
29238;SDS011;16267;48.194;11.546;2023-06-10T06:53:58;1.70;;;1.20;;
29238;SDS011;16267;48.194;11.546;2023-06-10T06:56:24;3.60;;;1.95;;
29238;SDS011;16267;48.194;11.546;2023-06-10T06:58:52;2.92;;;1.80;;
29238;SDS011;16267;48.194;11.546;2023-06-10T07:01:17;2.45;;;1.60;;
29238;SDS011;16267;48.194;11.546;2023-06-10T07:03:43;3.53;;;2.20;;
29238;SDS011;16267;48.194;11.546;2023-06-10T07:06:09;2.08;;;1.50;;
29238;SDS011;16267;48.194;11.546;2023-06-10T07:08:35;2.45;;;1.50;;
29238;SDS011;16267;48.194;11.546;2023-06-10T07:11:00;3.00;;;1.63;;
29238;SDS011;16267;48.194;11.546;2023-06-10T07:13:26;3.25;;;2.05;;
29238;SDS011;16267;48.194;11.546;2023-06-10T07:15:52;2.13;;;1.23;;
29238;SDS011;16267;48.194;11.546;2023-06-10T07:18:17;2.55;;;1.80;;
29238;SDS011;16267;48.194;11.546;2023-06-10T07:20:43;4.15;;;1.90;;
29238;SDS011;16267;48.194;11.546;2023-06-10T07:23:09;5.45;;;1.77;;
29238;SDS011;16267;48.194;11.546;2023-06-10T07:25:35;3.67;;;1.70;;
29238;SDS011;16267;48.194;11.546;2023-06-10T07:28:01;3.00;;;1.38;;
29238;SDS011;16267;48.194;11.546;2023-06-10T07:30:27;2.65;;;1.63;;
29238;SDS011;16267;48.194;11.546;2023-06-10T07:32:53;3.17;;;1.30;;
29238;SDS011;16267;48.194;11.546;2023-06-10T07:35:19;1.70;;;1.10;;
29238;SDS011;16267;48.194;11.546;2023-06-10T07:37:45;3.10;;;1.42;;
29238;SDS011;16267;48.194;11.546;2023-06-10T07:40:11;2.05;;;1.30;;
29238;SDS011;16267;48.194;11.546;2023-06-10T07:42:36;2.10;;;1.20;;
29238;SDS011;16267;48.194;11.546;2023-06-10T07:45:03;1.40;;;1.10;;
29238;SDS011;16267;48.194;11.546;2023-06-10T07:47:29;2.42;;;1.23;;
29238;SDS011;16267;48.194;11.546;2023-06-10T07:49:57;1.50;;;1.15;;
29238;SDS011;16267;48.194;11.546;2023-06-10T07:52:24;2.20;;;1.20;;
29238;SDS011;16267;48.194;11.546;2023-06-10T07:54:50;2.22;;;1.48;;
29238;SDS011;16267;48.194;11.546;2023-06-10T07:57:17;1.83;;;1.40;;
29238;SDS011;16267;48.194;11.546;2023-06-10T07:59:44;1.83;;;0.90;;
29238;SDS011;16267;48.194;11.546;2023-06-10T08:02:09;1.50;;;1.30;;
29238;SDS011;16267;48.194;11.546;2023-06-10T08:04:35;2.47;;;1.25;;
29238;SDS011;16267;48.194;11.546;2023-06-10T08:07:01;1.98;;;1.00;;
29238;SDS011;16267;48.194;11.546;2023-06-10T08:09:27;1.55;;;1.30;;
29238;SDS011;16267;48.194;11.546;2023-06-10T08:11:53;1.98;;;0.98;;
29238;SDS011;16267;48.194;11.546;2023-06-10T08:14:20;1.92;;;1.25;;
29238;SDS011;16267;48.194;11.546;2023-06-10T08:16:46;1.48;;;1.10;;
29238;SDS011;16267;48.194;11.546;2023-06-10T08:19:12;1.10;;;0.90;;
29238;SDS011;16267;48.194;11.546;2023-06-10T08:21:38;2.47;;;1.27;;
29238;SDS011;16267;48.194;11.546;2023-06-10T08:24:05;1.77;;;1.23;;
29238;SDS011;16267;48.194;11.546;2023-06-10T08:26:32;1.40;;;0.82;;
29238;SDS011;16267;48.194;11.546;2023-06-10T08:28:57;1.25;;;0.98;;
29238;SDS011;16267;48.194;11.546;2023-06-10T08:31:23;1.75;;;1.20;;
29238;SDS011;16267;48.194;11.546;2023-06-10T08:33:50;1.83;;;1.30;;
29238;SDS011;16267;48.194;11.546;2023-06-10T08:36:15;1.85;;;1.10;;
29238;SDS011;16267;48.194;11.546;2023-06-10T08:38:41;2.33;;;1.63;;
29238;SDS011;16267;48.194;11.546;2023-06-10T08:41:07;1.98;;;1.35;;
29238;SDS011;16267;48.194;11.546;2023-06-10T08:43:43;3.03;;;1.40;;
29238;SDS011;16267;48.194;11.546;2023-06-10T08:46:47;1.88;;;1.08;;
29238;SDS011;16267;48.194;11.546;2023-06-10T08:49:17;2.55;;;1.30;;
29238;SDS011;16267;48.194;11.546;2023-06-10T08:51:48;1.80;;;0.93;;
29238;SDS011;16267;48.194;11.546;2023-06-10T08:54:17;1.92;;;1.42;;
29238;SDS011;16267;48.194;11.546;2023-06-10T08:56:48;2.75;;;1.40;;
29238;SDS011;16267;48.194;11.546;2023-06-10T08:59:17;1.58;;;1.25;;
29238;SDS011;16267;48.194;11.546;2023-06-10T09:01:45;1.98;;;1.40;;
29238;SDS011;16267;48.194;11.546;2023-06-10T09:04:12;2.90;;;1.52;;
29238;SDS011;16267;48.194;11.546;2023-06-10T09:06:38;2.33;;;1.30;;
29238;SDS011;16267;48.194;11.546;2023-06-10T09:09:06;3.00;;;2.22;;
29238;SDS011;16267;48.194;11.546;2023-06-10T09:11:32;2.38;;;1.38;;
29238;SDS011;16267;48.194;11.546;2023-06-10T09:13:58;1.92;;;1.27;;
29238;SDS011;16267;48.194;11.546;2023-06-10T09:16:25;1.42;;;1.23;;
29238;SDS011;16267;48.194;11.546;2023-06-10T09:18:51;1.75;;;1.20;;
29238;SDS011;16267;48.194;11.546;2023-06-10T09:21:23;1.70;;;1.20;;
29238;SDS011;16267;48.194;11.546;2023-06-10T09:23:49;2.17;;;1.35;;
29238;SDS011;16267;48.194;11.546;2023-06-10T09:26:17;2.05;;;1.40;;
29238;SDS011;16267;48.194;11.546;2023-06-10T09:28:57;1.55;;;1.13;;
29238;SDS011;16267;48.194;11.546;2023-06-10T09:31:31;2.38;;;1.58;;
29238;SDS011;16267;48.194;11.546;2023-06-10T09:34:10;1.88;;;1.13;;
29238;SDS011;16267;48.194;11.546;2023-06-10T09:36:38;1.55;;;1.20;;
29238;SDS011;16267;48.194;11.546;2023-06-10T09:39:05;2.03;;;1.10;;
29238;SDS011;16267;48.194;11.546;2023-06-10T09:41:42;1.73;;;1.20;;
29238;SDS011;16267;48.194;11.546;2023-06-10T09:44:16;1.52;;;1.10;;
29238;SDS011;16267;48.194;11.546;2023-06-10T09:46:47;2.22;;;1.45;;
29238;SDS011;16267;48.194;11.546;2023-06-10T09:51:54;1.63;;;1.30;;
29238;SDS011;16267;48.194;11.546;2023-06-10T09:54:21;1.38;;;1.17;;
29238;SDS011;16267;48.194;11.546;2023-06-10T09:56:51;2.05;;;1.38;;
29238;SDS011;16267;48.194;11.546;2023-06-10T09:59:29;2.17;;;1.35;;
29238;SDS011;16267;48.194;11.546;2023-06-10T10:01:57;1.80;;;1.02;;
29238;SDS011;16267;48.194;11.546;2023-06-10T10:04:26;1.05;;;0.75;;
29238;SDS011;16267;48.194;11.546;2023-06-10T10:06:53;1.58;;;1.27;;
29238;SDS011;16267;48.194;11.546;2023-06-10T10:09:19;1.70;;;1.20;;
29238;SDS011;16267;48.194;11.546;2023-06-10T10:11:45;1.17;;;1.08;;
29238;SDS011;16267;48.194;11.546;2023-06-10T10:14:12;1.90;;;1.27;;
29238;SDS011;16267;48.194;11.546;2023-06-10T10:16:41;1.73;;;1.20;;
29238;SDS011;16267;48.194;11.546;2023-06-10T10:19:10;2.55;;;1.30;;
29238;SDS011;16267;48.194;11.546;2023-06-10T10:21:43;2.33;;;1.10;;
29238;SDS011;16267;48.194;11.546;2023-06-10T10:24:23;2.10;;;1.27;;
29238;SDS011;16267;48.194;11.546;2023-06-10T10:26:59;2.03;;;0.80;;
29238;SDS011;16267;48.194;11.546;2023-06-10T10:29:31;2.30;;;1.10;;
29238;SDS011;16267;48.194;11.546;2023-06-10T10:32:04;1.48;;;1.02;;
29238;SDS011;16267;48.194;11.546;2023-06-10T10:37:19;0.73;;;0.73;;
29238;SDS011;16267;48.194;11.546;2023-06-10T10:39:45;1.25;;;1.00;;
29238;SDS011;16267;48.194;11.546;2023-06-10T10:42:12;1.77;;;1.10;;
29238;SDS011;16267;48.194;11.546;2023-06-10T10:44:38;2.33;;;1.30;;
29238;SDS011;16267;48.194;11.546;2023-06-10T10:47:07;1.70;;;1.33;;
29238;SDS011;16267;48.194;11.546;2023-06-10T10:49:35;1.55;;;1.17;;
29238;SDS011;16267;48.194;11.546;2023-06-10T10:52:03;1.55;;;1.10;;
29238;SDS011;16267;48.194;11.546;2023-06-10T10:54:33;1.33;;;0.93;;
29238;SDS011;16267;48.194;11.546;2023-06-10T11:05:19;1.27;;;1.03;;
29238;SDS011;16267;48.194;11.546;2023-06-10T11:08:09;1.60;;;0.93;;
29238;SDS011;16267;48.194;11.546;2023-06-10T11:10:36;0.95;;;0.85;;
29238;SDS011;16267;48.194;11.546;2023-06-10T11:13:26;1.50;;;1.02;;
29238;SDS011;16267;48.194;11.546;2023-06-10T11:15:55;2.30;;;1.40;;
29238;SDS011;16267;48.194;11.546;2023-06-10T11:18:23;1.65;;;1.10;;
29238;SDS011;16267;48.194;11.546;2023-06-10T11:21:03;1.60;;;1.27;;
29238;SDS011;16267;48.194;11.546;2023-06-10T11:23:34;1.30;;;1.00;;
29238;SDS011;16267;48.194;11.546;2023-06-10T11:31:06;1.30;;;0.98;;
29238;SDS011;16267;48.194;11.546;2023-06-10T11:33:43;2.03;;;0.88;;
29238;SDS011;16267;48.194;11.546;2023-06-10T11:36:09;1.33;;;0.80;;
29238;SDS011;16267;48.194;11.546;2023-06-10T11:38:35;1.63;;;1.20;;
29238;SDS011;16267;48.194;11.546;2023-06-10T11:41:02;1.00;;;0.70;;
29238;SDS011;16267;48.194;11.546;2023-06-10T11:43:28;1.35;;;1.05;;
29238;SDS011;16267;48.194;11.546;2023-06-10T11:45:54;2.38;;;1.13;;
29238;SDS011;16267;48.194;11.546;2023-06-10T11:48:21;1.30;;;1.00;;
29238;SDS011;16267;48.194;11.546;2023-06-10T11:50:46;1.23;;;0.80;;
29238;SDS011;16267;48.194;11.546;2023-06-10T11:53:12;1.30;;;0.93;;
29238;SDS011;16267;48.194;11.546;2023-06-10T11:55:42;1.60;;;1.13;;
29238;SDS011;16267;48.194;11.546;2023-06-10T11:58:15;1.45;;;0.90;;
29238;SDS011;16267;48.194;11.546;2023-06-10T12:00:49;1.58;;;0.90;;
29238;SDS011;16267;48.194;11.546;2023-06-10T12:03:26;1.35;;;1.02;;
29238;SDS011;16267;48.194;11.546;2023-06-10T12:06:05;1.30;;;0.95;;
29238;SDS011;16267;48.194;11.546;2023-06-10T12:08:35;1.63;;;1.00;;
29238;SDS011;16267;48.194;11.546;2023-06-10T12:11:08;1.92;;;0.80;;
29238;SDS011;16267;48.194;11.546;2023-06-10T12:13:34;1.02;;;0.80;;
29238;SDS011;16267;48.194;11.546;2023-06-10T12:16:06;1.70;;;1.08;;
29238;SDS011;16267;48.194;11.546;2023-06-10T12:18:33;1.63;;;1.08;;
29238;SDS011;16267;48.194;11.546;2023-06-10T12:20:59;1.30;;;0.95;;
29238;SDS011;16267;48.194;11.546;2023-06-10T12:23:25;1.38;;;1.02;;
29238;SDS011;16267;48.194;11.546;2023-06-10T12:25:55;5.18;;;0.88;;
29238;SDS011;16267;48.194;11.546;2023-06-10T12:28:25;1.58;;;0.90;;
29238;SDS011;16267;48.194;11.546;2023-06-10T12:30:51;1.10;;;0.90;;
29238;SDS011;16267;48.194;11.546;2023-06-10T12:33:32;1.13;;;0.93;;
29238;SDS011;16267;48.194;11.546;2023-06-10T12:35:58;1.23;;;0.95;;
29238;SDS011;16267;48.194;11.546;2023-06-10T12:38:25;1.10;;;0.85;;
29238;SDS011;16267;48.194;11.546;2023-06-10T12:41:01;1.13;;;0.80;;
29238;SDS011;16267;48.194;11.546;2023-06-10T12:43:30;0.70;;;0.70;;
29238;SDS011;16267;48.194;11.546;2023-06-10T12:45:56;1.45;;;0.90;;
29238;SDS011;16267;48.194;11.546;2023-06-10T12:48:48;0.88;;;0.80;;
29238;SDS011;16267;48.194;11.546;2023-06-10T12:51:16;1.10;;;0.82;;
29238;SDS011;16267;48.194;11.546;2023-06-10T12:53:43;1.20;;;0.85;;
29238;SDS011;16267;48.194;11.546;2023-06-10T12:56:09;1.00;;;0.70;;
29238;SDS011;16267;48.194;11.546;2023-06-10T12:58:35;1.45;;;0.98;;
29238;SDS011;16267;48.194;11.546;2023-06-10T13:01:00;1.85;;;1.08;;
29238;SDS011;16267;48.194;11.546;2023-06-10T13:03:26;1.27;;;0.90;;
29238;SDS011;16267;48.194;11.546;2023-06-10T13:05:52;1.52;;;1.27;;
29238;SDS011;16267;48.194;11.546;2023-06-10T13:08:18;1.00;;;0.80;;
29238;SDS011;16267;48.194;11.546;2023-06-10T13:10:43;1.77;;;0.85;;
29238;SDS011;16267;48.194;11.546;2023-06-10T13:13:09;1.50;;;1.10;;
29238;SDS011;16267;48.194;11.546;2023-06-10T13:15:35;1.60;;;1.17;;
29238;SDS011;16267;48.194;11.546;2023-06-10T13:18:01;1.67;;;1.17;;
29238;SDS011;16267;48.194;11.546;2023-06-10T13:20:29;1.00;;;0.70;;
29238;SDS011;16267;48.194;11.546;2023-06-10T13:22:54;1.50;;;1.00;;
29238;SDS011;16267;48.194;11.546;2023-06-10T13:25:20;1.00;;;0.90;;
29238;SDS011;16267;48.194;11.546;2023-06-10T13:27:46;1.17;;;0.88;;
29238;SDS011;16267;48.194;11.546;2023-06-10T13:30:12;1.65;;;1.10;;
29238;SDS011;16267;48.194;11.546;2023-06-10T13:32:38;1.17;;;0.95;;
29238;SDS011;16267;48.194;11.546;2023-06-10T13:35:04;1.17;;;0.85;;
29238;SDS011;16267;48.194;11.546;2023-06-10T13:37:30;1.25;;;0.77;;
29238;SDS011;16267;48.194;11.546;2023-06-10T13:39:58;1.15;;;0.77;;
29238;SDS011;16267;48.194;11.546;2023-06-10T13:42:24;3.72;;;1.08;;
29238;SDS011;16267;48.194;11.546;2023-06-10T13:44:54;1.48;;;1.13;;
29238;SDS011;16267;48.194;11.546;2023-06-10T13:47:21;1.00;;;0.90;;
29238;SDS011;16267;48.194;11.546;2023-06-10T13:49:47;1.92;;;1.00;;
29238;SDS011;16267;48.194;11.546;2023-06-10T13:52:13;1.35;;;0.95;;
29238;SDS011;16267;48.194;11.546;2023-06-10T13:54:39;2.63;;;1.00;;
29238;SDS011;16267;48.194;11.546;2023-06-10T13:57:06;1.38;;;1.02;;
29238;SDS011;16267;48.194;11.546;2023-06-10T13:59:32;1.25;;;0.90;;
29238;SDS011;16267;48.194;11.546;2023-06-10T14:01:58;0.90;;;0.77;;
29238;SDS011;16267;48.194;11.546;2023-06-10T14:04:24;1.10;;;0.82;;
29238;SDS011;16267;48.194;11.546;2023-06-10T14:06:49;1.13;;;0.75;;
29238;SDS011;16267;48.194;11.546;2023-06-10T14:09:15;1.15;;;0.88;;
29238;SDS011;16267;48.194;11.546;2023-06-10T14:11:41;0.90;;;0.85;;
29238;SDS011;16267;48.194;11.546;2023-06-10T14:14:07;1.60;;;0.90;;
29238;SDS011;16267;48.194;11.546;2023-06-10T14:16:33;1.42;;;0.93;;
29238;SDS011;16267;48.194;11.546;2023-06-10T14:18:59;2.05;;;1.15;;
29238;SDS011;16267;48.194;11.546;2023-06-10T14:21:25;1.48;;;1.00;;
29238;SDS011;16267;48.194;11.546;2023-06-10T14:23:51;0.90;;;0.80;;
29238;SDS011;16267;48.194;11.546;2023-06-10T14:26:18;1.73;;;0.98;;
29238;SDS011;16267;48.194;11.546;2023-06-10T14:28:46;1.02;;;0.93;;
29238;SDS011;16267;48.194;11.546;2023-06-10T14:31:13;1.05;;;0.95;;
29238;SDS011;16267;48.194;11.546;2023-06-10T14:33:38;1.83;;;1.35;;
29238;SDS011;16267;48.194;11.546;2023-06-10T14:36:07;2.97;;;1.70;;
29238;SDS011;16267;48.194;11.546;2023-06-10T14:38:33;1.50;;;0.98;;
29238;SDS011;16267;48.194;11.546;2023-06-10T14:40:58;1.60;;;1.17;;
29238;SDS011;16267;48.194;11.546;2023-06-10T14:43:24;1.50;;;0.93;;
29238;SDS011;16267;48.194;11.546;2023-06-10T14:45:50;1.50;;;1.08;;
29238;SDS011;16267;48.194;11.546;2023-06-10T14:48:16;0.90;;;0.73;;
29238;SDS011;16267;48.194;11.546;2023-06-10T14:50:42;0.90;;;0.75;;
29238;SDS011;16267;48.194;11.546;2023-06-10T14:53:10;1.67;;;0.80;;
29238;SDS011;16267;48.194;11.546;2023-06-10T14:55:36;0.80;;;0.55;;
29238;SDS011;16267;48.194;11.546;2023-06-10T14:58:01;2.42;;;1.33;;
29238;SDS011;16267;48.194;11.546;2023-06-10T15:00:27;1.10;;;0.70;;
29238;SDS011;16267;48.194;11.546;2023-06-10T15:02:53;0.98;;;0.73;;